createdAt,value
2023-05-02T00:04:23.627Z,100667.42
2023-05-02T00:09:46.199Z,100672.63
2023-05-02T00:15:08.596Z,100658.72
2023-05-02T00:20:31.641Z,100655.70
2023-05-02T00:25:57.759Z,100643.58
2023-05-02T00:31:20.259Z,100637.48
2023-05-02T00:36:43.329Z,100631.70
2023-05-02T00:42:12.147Z,100641.95
2023-05-02T00:47:34.645Z,100633.74
2023-05-02T00:52:57.478Z,100625.45
2023-05-02T00:58:25.902Z,100610.92
2023-05-02T01:04:24.917Z,100608.77
2023-05-02T01:10:25.094Z,100612.00
2023-05-02T01:15:49.366Z,100614.56
2023-05-02T01:21:15.826Z,100605.38
2023-05-02T01:27:09.012Z,100606.00
2023-05-02T01:32:35.020Z,100608.73
2023-05-02T01:38:09.028Z,100610.22
2023-05-02T01:43:34.365Z,100614.81
2023-05-02T01:48:58.369Z,100607.83
2023-05-02T01:54:23.819Z,100605.91
2023-05-02T01:59:48.801Z,100607.97
2023-05-02T02:05:12.587Z,100592.01
2023-05-02T02:10:36.930Z,100592.20
2023-05-02T02:16:04.247Z,100587.19
2023-05-02T02:21:29.840Z,100595.30
2023-05-02T02:26:53.839Z,100584.17
2023-05-02T02:32:16.484Z,100583.09
2023-05-02T02:37:48.534Z,100586.28
2023-05-02T02:43:33.849Z,100595.19
2023-05-02T02:49:13.073Z,100603.63
2023-05-02T02:54:45.835Z,100603.77
2023-05-02T03:00:26.111Z,100604.62
2023-05-02T03:05:50.075Z,100611.16
2023-05-02T03:11:12.364Z,100615.02
2023-05-02T03:16:54.222Z,100607.66
2023-05-02T03:22:17.145Z,100601.34
2023-05-02T03:27:40.945Z,100605.33
2023-05-02T03:33:05.140Z,100609.90
2023-05-02T03:38:28.329Z,100615.19
2023-05-02T03:43:51.123Z,100624.70
2023-05-02T03:49:13.979Z,100613.43
2023-05-02T03:54:38.228Z,100607.27
2023-05-02T04:00:01.178Z,100615.12
2023-05-02T04:05:24.006Z,100614.05
2023-05-02T04:10:46.672Z,100631.19
2023-05-02T04:16:09.136Z,100639.45
2023-05-02T04:21:32.253Z,100647.40
2023-05-02T04:26:54.605Z,100649.11
2023-05-02T04:32:17.759Z,100656.31
2023-05-02T04:37:40.108Z,100654.59
2023-05-02T04:43:02.348Z,100649.55
2023-05-02T04:48:25.861Z,100652.23
2023-05-02T04:53:48.159Z,100652.62
2023-05-02T04:59:10.655Z,100678.48
2023-05-02T05:04:32.913Z,100678.71
2023-05-02T05:09:55.161Z,100684.71
2023-05-02T05:15:17.594Z,100688.14
2023-05-02T05:20:39.981Z,100693.88
2023-05-02T05:26:02.239Z,100688.58
2023-05-02T05:31:28.261Z,100695.63
2023-05-02T05:36:52.840Z,100705.29
2023-05-02T05:42:15.085Z,100692.62
2023-05-02T05:47:40.525Z,100716.30
2023-05-02T05:53:03.326Z,100701.08
2023-05-02T05:58:26.199Z,100699.66
2023-05-02T06:03:48.728Z,100700.97
2023-05-02T06:09:12.235Z,100711.02
2023-05-02T06:14:34.867Z,100723.47
2023-05-02T06:19:57.443Z,100731.81
2023-05-02T06:25:21.624Z,100735.30
2023-05-02T06:30:44.105Z,100740.86
2023-05-02T06:36:08.395Z,100748.02
2023-05-02T06:41:34.107Z,100757.44
2023-05-02T06:46:56.459Z,100771.53
2023-05-02T06:52:18.734Z,100781.70
2023-05-02T06:57:41.782Z,100779.59
2023-05-02T07:03:05.738Z,100794.55
2023-05-02T07:08:30.214Z,100787.42
2023-05-02T07:13:52.487Z,100779.60
2023-05-02T07:19:15.165Z,100784.76
2023-05-02T07:24:37.560Z,100790.13
2023-05-02T07:30:00.320Z,100790.10
2023-05-02T07:35:23.413Z,100793.39
2023-05-02T07:40:47.251Z,100791.20
2023-05-02T07:46:12.860Z,100803.31
2023-05-02T07:51:35.206Z,100807.95
2023-05-02T07:56:59.776Z,100817.37
2023-05-02T08:02:23.795Z,100822.12
2023-05-02T08:07:46.957Z,100823.97
2023-05-02T08:13:09.200Z,100831.69
2023-05-02T08:18:32.098Z,100842.08
2023-05-02T08:23:54.920Z,100843.73
2023-05-02T08:29:17.267Z,100854.77
2023-05-02T08:34:39.736Z,100851.63
2023-05-02T08:40:03.091Z,100859.47
2023-05-02T08:45:27.990Z,100859.59
2023-05-02T08:50:52.664Z,100867.90
2023-05-02T08:56:15.858Z,100867.41
2023-05-02T09:01:40.625Z,100868.27
2023-05-02T09:07:03.314Z,100873.58
2023-05-02T09:12:27.853Z,100872.41
2023-05-02T09:17:53.761Z,100878.20
2023-05-02T09:23:16.381Z,100878.53
2023-05-02T09:28:50.033Z,100884.66
2023-05-02T09:34:26.503Z,100886.20
2023-05-02T09:39:48.795Z,100890.99
2023-05-02T09:45:11.340Z,100911.59
2023-05-02T09:50:45.183Z,100928.02
2023-05-02T09:56:26.135Z,100918.89
2023-05-02T10:01:49.010Z,100918.05
2023-05-02T10:07:15.024Z,100928.25
2023-05-02T10:12:41.151Z,100927.58
2023-05-02T10:18:06.471Z,100929.39
2023-05-02T10:23:31.613Z,100940.11
2023-05-02T10:28:54.999Z,100940.47
2023-05-02T10:34:19.415Z,100945.63
2023-05-02T10:39:42.513Z,100958.18
2023-05-02T10:45:06.390Z,100961.59
2023-05-02T10:50:29.488Z,100975.70
2023-05-02T10:55:52.982Z,100993.03
2023-05-02T11:01:38.016Z,100969.26
2023-05-02T11:07:23.863Z,100989.35
2023-05-02T11:13:06.943Z,100992.45
2023-05-02T11:18:29.748Z,100990.25
2023-05-02T11:23:51.992Z,101022.11
2023-05-02T11:29:14.230Z,100995.17
2023-05-02T11:34:39.548Z,100994.41
2023-05-02T11:40:03.482Z,101007.53
2023-05-02T11:45:27.009Z,101033.30
2023-05-02T11:50:58.107Z,101003.72
2023-05-02T11:56:21.563Z,101019.33
2023-05-02T12:01:43.808Z,101021.65
2023-05-02T12:07:18.345Z,101026.05
2023-05-02T12:12:41.444Z,101037.10
2023-05-02T12:18:05.365Z,101038.88
2023-05-02T12:23:28.714Z,101057.27
2023-05-02T12:29:03.098Z,101055.06
2023-05-02T12:34:41.561Z,101060.87
2023-05-02T12:40:04.220Z,101059.45
2023-05-02T12:45:37.553Z,101064.11
2023-05-02T12:51:01.612Z,101095.77
2023-05-02T12:56:25.129Z,101094.42
2023-05-02T13:01:47.404Z,101112.31
2023-05-02T13:07:10.095Z,101111.75
2023-05-02T13:12:33.757Z,101145.16
2023-05-02T13:17:57.752Z,101154.49
2023-05-02T13:23:20.348Z,101171.77
2023-05-02T13:28:42.733Z,101161.23
2023-05-02T13:34:05.386Z,101162.23
2023-05-02T13:39:27.942Z,101185.22
2023-05-02T13:44:50.274Z,101201.05
2023-05-02T13:50:13.213Z,101187.02
2023-05-02T13:55:36.214Z,101180.11
2023-05-02T14:00:58.685Z,101199.95
2023-05-02T14:06:21.030Z,101222.62
2023-05-02T14:11:44.667Z,101221.30
2023-05-02T14:17:08.262Z,101224.73
2023-05-02T14:22:30.840Z,101226.31
2023-05-02T14:27:53.637Z,101244.36
2023-05-02T14:33:16.191Z,101244.61
2023-05-02T14:38:38.614Z,101257.70
2023-05-02T14:44:01.634Z,101278.88
2023-05-02T14:49:25.533Z,101267.03
2023-05-02T14:54:48.513Z,101278.75
2023-05-02T15:00:11.424Z,101287.52
2023-05-02T15:05:34.252Z,101307.10
2023-05-02T15:10:59.082Z,101302.02
2023-05-02T15:16:22.494Z,101313.66
2023-05-02T15:21:44.936Z,101323.66
2023-05-02T15:27:07.382Z,101322.58
2023-05-02T15:32:31.010Z,101320.59
2023-05-02T15:37:54.070Z,101327.12
2023-05-02T15:43:16.338Z,101329.63
2023-05-02T15:48:42.731Z,101335.31
2023-05-02T15:54:06.665Z,101326.09
2023-05-02T15:59:29.009Z,101344.27
2023-05-02T16:04:51.398Z,101355.58
2023-05-02T16:10:14.681Z,101353.75
2023-05-02T16:15:37.184Z,101348.21
2023-05-02T16:21:00.459Z,101347.84
2023-05-02T16:26:22.763Z,101356.16
2023-05-02T16:31:45.047Z,101371.53
2023-05-02T16:37:07.367Z,101374.46
2023-05-02T16:42:29.741Z,101375.63
2023-05-02T16:47:53.060Z,101382.53
2023-05-02T16:53:16.335Z,101386.36
2023-05-02T16:58:40.710Z,101392.02
2023-05-02T17:04:02.987Z,101406.67
2023-05-02T17:09:25.706Z,101408.66
2023-05-02T17:14:48.013Z,101409.68
2023-05-02T17:20:12.088Z,101408.05
2023-05-02T17:25:34.896Z,101403.86
2023-05-02T17:30:58.787Z,101418.58
2023-05-02T17:36:21.192Z,101423.72
2023-05-02T17:41:43.865Z,101421.60
2023-05-02T17:47:06.780Z,101430.33
2023-05-02T17:52:29.548Z,101425.58
2023-05-02T17:57:52.554Z,101434.19
2023-05-02T18:03:15.523Z,101433.55
2023-05-02T18:08:38.036Z,101454.00
2023-05-02T18:14:01.992Z,101461.95
2023-05-02T18:19:24.324Z,101481.29
2023-05-02T18:24:46.707Z,101491.95
2023-05-02T18:30:09.633Z,101497.29
2023-05-02T18:35:31.870Z,101508.97
2023-05-02T18:40:54.682Z,101520.48
2023-05-02T18:46:17.155Z,101530.06
2023-05-02T18:51:39.505Z,101538.59
2023-05-02T18:57:03.308Z,101547.38
2023-05-02T19:02:28.049Z,101555.67
2023-05-02T19:07:50.861Z,101563.41
2023-05-02T19:13:14.701Z,101567.14
2023-05-02T19:18:37.109Z,101570.91
2023-05-02T19:24:00.237Z,101578.63
2023-05-02T19:29:22.531Z,101586.42
2023-05-02T19:34:45.072Z,101589.09
2023-05-02T19:40:07.482Z,101599.75
2023-05-02T19:45:30.008Z,101620.20
2023-05-02T19:50:52.327Z,101628.19
2023-05-02T19:56:15.349Z,101633.28
2023-05-02T20:01:38.257Z,101635.97
2023-05-02T20:07:01.705Z,101639.42
2023-05-02T20:12:24.073Z,101649.81
2023-05-02T20:17:46.408Z,101659.36
2023-05-02T20:23:08.742Z,101665.22
2023-05-02T20:28:31.183Z,101663.41
2023-05-02T20:33:53.403Z,101653.63
2023-05-02T20:39:16.292Z,101667.04
2023-05-02T20:44:39.455Z,101669.72
2023-05-02T20:50:02.445Z,101676.91
2023-05-02T20:55:26.510Z,101681.40
2023-05-02T21:00:50.544Z,101681.58
2023-05-02T21:06:14.529Z,101681.03
2023-05-02T21:11:37.494Z,101681.36
2023-05-02T21:17:00.460Z,101687.94
2023-05-02T21:22:22.765Z,101693.47
2023-05-02T21:27:45.359Z,101704.50
2023-05-02T21:33:07.957Z,101708.22
2023-05-02T21:38:31.092Z,101712.08
2023-05-02T21:43:55.325Z,101709.93
2023-05-02T21:49:18.276Z,101720.43
2023-05-02T21:54:40.857Z,101728.85
2023-05-02T22:00:05.809Z,101738.05
2023-05-02T22:05:29.352Z,101749.14
2023-05-02T22:10:53.479Z,101751.20
2023-05-02T22:16:16.470Z,101745.19
2023-05-02T22:21:39.259Z,101752.60
2023-05-02T22:27:03.138Z,101762.81
2023-05-02T22:32:27.150Z,101755.16
2023-05-02T22:37:50.333Z,101762.69
2023-05-02T22:43:13.551Z,101761.39
2023-05-02T22:48:37.221Z,101772.69
2023-05-02T22:54:00.190Z,101769.80
2023-05-02T22:59:23.540Z,101784.02
2023-05-02T23:04:46.785Z,101782.30
2023-05-02T23:10:09.710Z,101782.20
2023-05-02T23:15:32.241Z,101776.40
2023-05-02T23:20:55.030Z,101789.52
2023-05-02T23:26:19.057Z,101791.43
2023-05-02T23:31:42.613Z,101799.14
2023-05-02T23:37:07.188Z,101800.20
2023-05-02T23:42:30.005Z,101803.28
2023-05-02T23:47:52.715Z,101803.91
2023-05-02T23:53:15.108Z,101799.31
2023-05-02T23:58:37.906Z,101800.63
